Time;durP1;ratioP1;P1;durP2;ratioP2;P2;SDS_P1;SDS_P2;PMS_P1;PMS_P2;Temp;Humidity;BMP_temperature;BMP_pressure;BME280_temperature;BME280_humidity;BME280_pressure;Samples;Min_cycle;Max_cycle;Signal;HPM_P1;HPM_P2
2023/01/26 00:01:23;;;;;;;;;;;;;;;;;;5083323;28;19948;-77
2023/01/26 00:03:49;;;;;;;;;;;;;;;;;;5084630;28;20016;-77
2023/01/26 00:06:15;;;;;;;;;;;;;;;;;;5082548;28;19913;-78
2023/01/26 00:08:41;;;;;;;;;;;;;;;;;;5083618;28;20416;-77
2023/01/26 00:11:06;;;;;;;;;;;;;;;;;;5082856;28;20272;-77
2023/01/26 00:13:32;;;;;;;;;;;;;;;;;;5082974;28;19916;-77
2023/01/26 00:15:58;;;;;;;;;;;;;;;;;;5081953;28;19908;-77
2023/01/26 00:18:24;;;;;;;;;;;;;;;;;;5082799;28;19912;-77
2023/01/26 00:20:50;;;;;;;;;;;;;;;;;;5083879;28;19912;-77
2023/01/26 00:23:16;;;;;;;;;;;;;;;;;;5082843;28;19931;-78
2023/01/26 00:25:42;;;;;;;;;;;;;;;;;;5081976;28;20292;-78
2023/01/26 00:28:08;;;;;;;;;;;;;;;;;;5082375;28;19908;-78
2023/01/26 00:30:34;;;;;;;;;;;;;;;;;;5084265;28;19908;-77
2023/01/26 00:32:59;;;;;;;;;;;;;;;;;;5084337;28;20266;-78
2023/01/26 00:35:25;;;;;;;;;;;;;;;;;;5080765;28;19908;-76
2023/01/26 00:37:51;;;;;;;;;;;;;;;;;;5082553;28;19909;-78
2023/01/26 00:40:17;;;;;;;;;;;;;;;;;;5083506;28;19922;-79
2023/01/26 00:42:43;;;;;;;;;;;;;;;;;;5082386;28;19942;-78
2023/01/26 00:45:09;;;;;;;;;;;;;;;;;;5082199;28;19912;-76
2023/01/26 00:47:35;;;;;;;;;;;;;;;;;;5081230;28;20046;-79
2023/01/26 00:50:01;;;;;;;;;;;;;;;;;;5080757;28;19916;-78
2023/01/26 00:52:27;;;;;;;;;;;;;;;;;;5082213;28;19909;-77
2023/01/26 00:54:53;;;;;;;;;;;;;;;;;;5082136;28;19909;-76
2023/01/26 00:57:18;;;;;;;;;;;;;;;;;;5083003;28;19915;-77
2023/01/26 00:59:44;;;;;;;;;;;;;;;;;;5084651;28;19917;-78
2023/01/26 01:02:10;;;;;;;;;;;;;;;;;;5085088;28;19912;-77
2023/01/26 01:04:36;;;;;;;;;;;;;;;;;;5084514;28;19974;-78
2023/01/26 01:07:02;;;;;;;;;;;;;;;;;;5085797;28;19909;-77
2023/01/26 01:09:28;;;;;;;;;;;;;;;;;;5086276;28;19908;-78
2023/01/26 01:11:54;;;;;;;;;;;;;;;;;;5084819;28;20074;-79
2023/01/26 01:14:20;;;;;;;;;;;;;;;;;;5086560;28;19917;-79
2023/01/26 01:16:46;;;;;;;;;;;;;;;;;;5085290;28;19938;-77
2023/01/26 01:19:12;;;;;;;;;;;;;;;;;;5085114;28;19909;-77
2023/01/26 01:21:38;;;;;;;;;;;;;;;;;;5086580;28;19916;-78
2023/01/26 01:24:03;;;;;;;;;;;;;;;;;;5085636;28;19908;-79
2023/01/26 01:26:29;;;;;;;;;;;;;;;;;;5084089;28;19915;-79
2023/01/26 01:28:56;;;;;;;;;;;;;;;;;;5084368;28;19908;-79
2023/01/26 01:31:22;;;;;;;;;;;;;;;;;;5084455;28;19915;-79
2023/01/26 01:33:48;;;;;;;;;;;;;;;;;;5083938;28;19909;-77
2023/01/26 01:36:14;;;;;;;;;;;;;;;;;;5084165;28;19909;-78
2023/01/26 01:38:40;;;;;;;;;;;;;;;;;;5083684;28;20300;-78
2023/01/26 01:41:06;;;;;;;;;;;;;;;;;;5086226;28;20412;-76
2023/01/26 01:43:31;;;;;;;;;;;;;;;;;;5084858;28;20003;-77
2023/01/26 01:45:57;;;;;;;;;;;;;;;;;;5083387;28;19939;-78
2023/01/26 01:48:23;;;;;;;;;;;;;;;;;;5082066;28;19962;-80
2023/01/26 01:50:49;;;;;;;;;;;;;;;;;;5083945;28;19948;-81
2023/01/26 01:53:15;;;;;;;;;;;;;;;;;;5084399;28;19955;-78
2023/01/26 01:55:41;;;;;;;;;;;;;;;;;;5083507;28;19975;-78
2023/01/26 01:58:07;;;;;;;;;;;;;;;;;;5083798;28;19908;-79
2023/01/26 02:00:33;;;;;;;;;;;;;;;;;;5083941;28;20361;-77
2023/01/26 02:03:13;;;;;;;;;;;;;;;;;;5084526;28;19975;-78
2023/01/26 02:05:39;;;;;;;;;;;;;;;;;;5083520;28;19912;-79
2023/01/26 02:08:05;;;;;;;;;;;;;;;;;;5084707;28;19920;-79
2023/01/26 02:10:31;;;;;;;;;;;;;;;;;;5083813;28;19908;-79
2023/01/26 02:12:59;;;;;;;;;;;;;;;;;;5083484;28;19909;-78
2023/01/26 02:15:25;;;;;;;;;;;;;;;;;;5083583;28;20394;-78
2023/01/26 02:17:51;;;;;;;;;;;;;;;;;;5082756;28;19940;-78
2023/01/26 02:20:17;;;;;;;;;;;;;;;;;;5083397;28;19928;-79
2023/01/26 02:22:43;;;;;;;;;;;;;;;;;;5083890;28;20375;-77
2023/01/26 02:25:08;;;;;;;;;;;;;;;;;;5084824;28;19962;-77
2023/01/26 02:27:34;;;;;;;;;;;;;;;;;;5083870;28;20000;-78
2023/01/26 02:30:00;;;;;;;;;;;;;;;;;;5083320;28;20556;-79
2023/01/26 02:32:27;;;;;;;;;;;;;;;;;;5079763;28;20003;-79
2023/01/26 02:34:53;;;;;;;;;;;;;;;;;;5075250;28;19952;-79
2023/01/26 02:37:18;;;;;;;;;;;;;;;;;;5079614;28;19919;-77
2023/01/26 02:39:44;;;;;;;;;;;;;;;;;;5083724;28;19909;-78
2023/01/26 02:44:55;;;;;;;;;;;;;;;;;;5084522;28;20438;-78
2023/01/26 02:47:21;;;;;;;;;;;;;;;;;;5083202;28;19909;-79
2023/01/26 02:49:49;;;;;;;;;;;;;;;;;;5085154;28;19953;-79
2023/01/26 02:52:15;;;;;;;;;;;;;;;;;;5084029;28;19954;-78
2023/01/26 02:57:26;;;;;;;;;;;;;;;;;;5081439;28;19981;-77
2023/01/26 02:59:51;;;;;;;;;;;;;;;;;;5077426;28;19995;-77
2023/01/26 03:02:17;;;;;;;;;;;;;;;;;;5072116;28;19997;-77
2023/01/26 03:04:43;;;;;;;;;;;;;;;;;;5073148;28;19913;-76
2023/01/26 03:07:09;;;;;;;;;;;;;;;;;;5072940;28;19916;-76
2023/01/26 03:09:35;;;;;;;;;;;;;;;;;;5071714;28;19999;-76
2023/01/26 03:12:01;;;;;;;;;;;;;;;;;;5072583;28;19908;-76
2023/01/26 03:14:27;;;;;;;;;;;;;;;;;;5075237;28;20415;-77
2023/01/26 03:16:54;;;;;;;;;;;;;;;;;;5074711;28;19931;-76
2023/01/26 03:27:34;;;;;;;;;;;;;;;;;;5076402;28;19983;-77
2023/01/26 03:30:00;;;;;;;;;;;;;;;;;;5076097;28;19912;-76
2023/01/26 03:32:26;;;;;;;;;;;;;;;;;;5075472;28;20427;-75
2023/01/26 03:34:51;;;;;;;;;;;;;;;;;;5074908;28;19935;-76
2023/01/26 03:37:23;;;;;;;;;;;;;;;;;;5074799;28;19915;-75
2023/01/26 03:56:21;;;;;;;;;;;;;;;;;;5075354;28;19916;-76
2023/01/26 03:58:47;;;;;;;;;;;;;;;;;;5008509;28;1836255;-75
2023/01/26 04:01:19;;;;;;;;;;;;;;;;;;5075422;28;19915;-76
2023/01/26 04:09:15;;;;;;;;;;;;;;;;;;5075958;28;20407;-76
2023/01/26 04:11:41;;;;;;;;;;;;;;;;;;5075402;28;20388;-76
2023/01/26 04:22:21;;;;;;;;;;;;;;;;;;5077046;28;20391;-75
2023/01/26 04:24:46;;;;;;;;;;;;;;;;;;5073674;28;19917;-76
2023/01/26 04:27:12;;;;;;;;;;;;;;;;;;5075169;28;19915;-74
2023/01/26 04:29:38;;;;;;;;;;;;;;;;;;5075118;28;20373;-74
2023/01/26 04:32:04;;;;;;;;;;;;;;;;;;5076159;28;19908;-76
2023/01/26 04:34:30;;;;;;;;;;;;;;;;;;5074796;28;19909;-76
2023/01/26 04:36:56;;;;;;;;;;;;;;;;;;5074542;28;20376;-76
2023/01/26 04:39:22;;;;;;;;;;;;;;;;;;5075723;28;19909;-76
2023/01/26 04:41:48;;;;;;;;;;;;;;;;;;5074857;28;19951;-76
2023/01/26 04:44:14;;;;;;;;;;;;;;;;;;5075053;28;20011;-77
2023/01/26 04:46:40;;;;;;;;;;;;;;;;;;5074438;28;19954;-75
2023/01/26 04:49:05;;;;;;;;;;;;;;;;;;5072505;28;19908;-76
2023/01/26 04:51:31;;;;;;;;;;;;;;;;;;5074588;28;19909;-76
2023/01/26 04:53:57;;;;;;;;;;;;;;;;;;5074895;28;19916;-76
2023/01/26 04:56:23;;;;;;;;;;;;;;;;;;5074020;28;20381;-78
2023/01/26 04:58:49;;;;;;;;;;;;;;;;;;5073408;28;19927;-77
2023/01/26 05:01:15;;;;;;;;;;;;;;;;;;5075658;28;19909;-75
2023/01/26 05:03:41;;;;;;;;;;;;;;;;;;5074372;28;19912;-76
2023/01/26 05:06:07;;;;;;;;;;;;;;;;;;5074092;28;19920;-76
2023/01/26 05:08:33;;;;;;;;;;;;;;;;;;5075336;28;20345;-77
2023/01/26 05:10:58;;;;;;;;;;;;;;;;;;5075062;28;19915;-76
2023/01/26 05:13:24;;;;;;;;;;;;;;;;;;5075639;28;19940;-76
2023/01/26 05:15:50;;;;;;;;;;;;;;;;;;5074045;28;20389;-76
2023/01/26 05:18:16;;;;;;;;;;;;;;;;;;5073391;28;19909;-76
2023/01/26 05:20:42;;;;;;;;;;;;;;;;;;5075090;28;19909;-76
2023/01/26 05:23:08;;;;;;;;;;;;;;;;;;5075012;28;20384;-76
2023/01/26 05:25:34;;;;;;;;;;;;;;;;;;5072915;28;19913;-76
2023/01/26 05:28:00;;;;;;;;;;;;;;;;;;5073250;28;19931;-76
2023/01/26 05:30:26;;;;;;;;;;;;;;;;;;5074689;28;20327;-76
2023/01/26 05:32:52;;;;;;;;;;;;;;;;;;5074338;28;19909;-76
2023/01/26 05:35:17;;;;;;;;;;;;;;;;;;5073856;28;20450;-76
2023/01/26 05:37:44;;;;;;;;;;;;;;;;;;5074183;28;20276;-76
2023/01/26 05:40:10;;;;;;;;;;;;;;;;;;5074487;28;20360;-76
2023/01/26 05:42:36;;;;;;;;;;;;;;;;;;5074847;28;19930;-76
2023/01/26 05:45:02;;;;;;;;;;;;;;;;;;5074687;28;19912;-74
2023/01/26 05:47:28;;;;;;;;;;;;;;;;;;5071231;28;19966;-76
2023/01/26 05:49:54;;;;;;;;;;;;;;;;;;5072704;28;20328;-77
2023/01/26 05:52:20;;;;;;;;;;;;;;;;;;5077259;28;20003;-82
2023/01/26 05:54:45;;;;;;;;;;;;;;;;;;5074639;28;20297;-79
2023/01/26 05:57:11;;;;;;;;;;;;;;;;;;5084592;28;19935;-78
2023/01/26 05:59:37;;;;;;;;;;;;;;;;;;5075405;28;19917;-76
2023/01/26 06:02:03;;;;;;;;;;;;;;;;;;5074710;28;19908;-75
2023/01/26 06:04:29;;;;;;;;;;;;;;;;;;5072801;28;19920;-76
2023/01/26 06:06:55;;;;;;;;;;;;;;;;;;5074250;28;19909;-80
2023/01/26 06:09:21;;;;;;;;;;;;;;;;;;5073484;28;19913;-79
2023/01/26 06:11:47;;;;;;;;;;;;;;;;;;5074426;28;20000;-77
2023/01/26 06:14:13;;;;;;;;;;;;;;;;;;5072438;28;20353;-77
2023/01/26 06:16:39;;;;;;;;;;;;;;;;;;5072753;28;19915;-76
2023/01/26 06:19:04;;;;;;;;;;;;;;;;;;5072222;28;19908;-77
2023/01/26 06:21:30;;;;;;;;;;;;;;;;;;5073339;28;20046;-76
2023/01/26 06:23:56;;;;;;;;;;;;;;;;;;5073428;28;19946;-77
2023/01/26 06:26:25;;;;;;;;;;;;;;;;;;5072875;28;19916;-76
2023/01/26 06:28:51;;;;;;;;;;;;;;;;;;5073747;28;19912;-77
2023/01/26 06:31:17;;;;;;;;;;;;;;;;;;5074560;28;20357;-77
2023/01/26 06:33:43;;;;;;;;;;;;;;;;;;5072947;28;19909;-76
2023/01/26 06:36:09;;;;;;;;;;;;;;;;;;5073547;28;19908;-77
2023/01/26 06:38:35;;;;;;;;;;;;;;;;;;5072402;28;19916;-77
2023/01/26 06:41:01;;;;;;;;;;;;;;;;;;5073874;28;19908;-77
2023/01/26 06:43:27;;;;;;;;;;;;;;;;;;5072376;28;19967;-76
2023/01/26 06:45:53;;;;;;;;;;;;;;;;;;5073894;28;20357;-76
2023/01/26 06:48:19;;;;;;;;;;;;;;;;;;5076003;28;19966;-77
2023/01/26 06:50:45;;;;;;;;;;;;;;;;;;5076985;28;19999;-77
2023/01/26 06:53:11;;;;;;;;;;;;;;;;;;5077052;28;19912;-76
2023/01/26 06:55:37;;;;;;;;;;;;;;;;;;5076293;28;20419;-76
2023/01/26 06:58:03;;;;;;;;;;;;;;;;;;5076211;28;19908;-76
2023/01/26 07:00:28;;;;;;;;;;;;;;;;;;5077734;28;19916;-77
2023/01/26 07:02:54;;;;;;;;;;;;;;;;;;5077129;28;20296;-76
2023/01/26 07:05:20;;;;;;;;;;;;;;;;;;5077456;28;19919;-76
2023/01/26 07:07:46;;;;;;;;;;;;;;;;;;5078122;28;19912;-76
2023/01/26 07:10:12;;;;;;;;;;;;;;;;;;5076894;28;20336;-76
2023/01/26 07:12:38;;;;;;;;;;;;;;;;;;5076505;28;19995;-77
2023/01/26 07:15:04;;;;;;;;;;;;;;;;;;5096942;28;19912;-77
2023/01/26 07:17:30;;;;;;;;;;;;;;;;;;5096188;28;19959;-79
2023/01/26 07:19:56;;;;;;;;;;;;;;;;;;5095871;28;19908;-76
2023/01/26 07:22:21;;;;;;;;;;;;;;;;;;5096626;28;19919;-77
2023/01/26 07:24:47;;;;;;;;;;;;;;;;;;5096145;28;19913;-77
2023/01/26 07:27:13;;;;;;;;;;;;;;;;;;5097473;28;19970;-76
2023/01/26 07:29:39;;;;;;;;;;;;;;;;;;5098057;28;20045;-77
2023/01/26 07:32:05;;;;;;;;;;;;;;;;;;5097622;28;19912;-75
2023/01/26 07:34:31;;;;;;;;;;;;;;;;;;5095082;28;19912;-77
2023/01/26 07:36:57;;;;;;;;;;;;;;;;;;5095811;28;19915;-77
2023/01/26 07:39:23;;;;;;;;;;;;;;;;;;5096348;28;19908;-77
2023/01/26 07:41:49;;;;;;;;;;;;;;;;;;5095832;28;19965;-78
2023/01/26 07:44:15;;;;;;;;;;;;;;;;;;5097024;28;19908;-77
2023/01/26 07:46:41;;;;;;;;;;;;;;;;;;5095383;28;19922;-77
2023/01/26 07:49:07;;;;;;;;;;;;;;;;;;5095324;28;19914;-75
2023/01/26 07:51:33;;;;;;;;;;;;;;;;;;5096185;28;19958;-76
2023/01/26 07:53:59;;;;;;;;;;;;;;;;;;5096915;28;20380;-76
2023/01/26 07:56:25;;;;;;;;;;;;;;;;;;5095396;28;19908;-76
2023/01/26 07:58:50;;;;;;;;;;;;;;;;;;5094438;28;20008;-76
2023/01/26 08:01:16;;;;;;;;;;;;;;;;;;5097814;28;19908;-77
2023/01/26 08:03:44;;;;;;;;;;;;;;;;;;5098542;28;19951;-77
2023/01/26 08:06:10;;;;;;;;;;;;;;;;;;5095487;28;19912;-77
2023/01/26 08:08:38;;;;;;;;;;;;;;;;;;5095299;28;20372;-76
2023/01/26 08:11:04;;;;;;;;;;;;;;;;;;5100735;28;19909;-80
2023/01/26 08:13:30;;;;;;;;;;;;;;;;;;5100304;28;19957;-80
2023/01/26 08:15:56;;;;;;;;;;;;;;;;;;5102844;28;20337;-78
2023/01/26 08:18:22;;;;;;;;;;;;;;;;;;5103364;28;19943;-77
2023/01/26 08:20:48;;;;;;;;;;;;;;;;;;5102360;28;19936;-77
2023/01/26 08:23:14;;;;;;;;;;;;;;;;;;5104553;28;20045;-79
2023/01/26 08:25:39;;;;;;;;;;;;;;;;;;5096866;28;19994;-77
2023/01/26 08:28:05;;;;;;;;;;;;;;;;;;5094599;28;19908;-78
2023/01/26 08:30:31;;;;;;;;;;;;;;;;;;5093875;28;19919;-77
2023/01/26 08:32:57;;;;;;;;;;;;;;;;;;5094682;28;19947;-76
2023/01/26 08:35:23;;;;;;;;;;;;;;;;;;5095312;28;20279;-77
2023/01/26 08:37:49;;;;;;;;;;;;;;;;;;5096138;28;19915;-76
2023/01/26 08:40:15;;;;;;;;;;;;;;;;;;5097398;28;20383;-76
2023/01/26 08:42:41;;;;;;;;;;;;;;;;;;5097630;28;19912;-77
2023/01/26 08:45:07;;;;;;;;;;;;;;;;;;5096210;28;19912;-75
2023/01/26 08:47:33;;;;;;;;;;;;;;;;;;5094895;28;19914;-76
2023/01/26 08:49:59;;;;;;;;;;;;;;;;;;5093783;28;20381;-77
2023/01/26 08:52:24;;;;;;;;;;;;;;;;;;5096839;28;19915;-75
2023/01/26 08:54:50;;;;;;;;;;;;;;;;;;5095070;28;19908;-76
2023/01/26 08:57:16;;;;;;;;;;;;;;;;;;5095951;28;19961;-78
2023/01/26 08:59:42;;;;;;;;;;;;;;;;;;5098080;28;19923;-78
2023/01/26 09:02:08;;;;;;;;;;;;;;;;;;5102996;28;19908;-78
2023/01/26 09:04:34;;;;;;;;;;;;;;;;;;5103509;28;19933;-78
2023/01/26 09:07:00;;;;;;;;;;;;;;;;;;5106843;28;19915;-77
2023/01/26 09:09:26;;;;;;;;;;;;;;;;;;5105023;28;19908;-78
2023/01/26 09:11:52;;;;;;;;;;;;;;;;;;5104502;28;19947;-77
2023/01/26 09:14:18;;;;;;;;;;;;;;;;;;5090160;28;20622;-78
2023/01/26 09:16:44;;;;;;;;;;;;;;;;;;5075899;28;19909;-77
2023/01/26 09:19:10;;;;;;;;;;;;;;;;;;5075438;28;19916;-76
2023/01/26 09:21:36;;;;;;;;;;;;;;;;;;5077510;28;19916;-77
2023/01/26 09:24:02;;;;;;;;;;;;;;;;;;5077768;28;19930;-77
2023/01/26 09:26:27;;;;;;;;;;;;;;;;;;5075732;28;19917;-77
2023/01/26 09:28:53;;;;;;;;;;;;;;;;;;5076418;28;19915;-77
2023/01/26 09:31:19;;;;;;;;;;;;;;;;;;5075487;28;19908;-77
2023/01/26 09:33:45;;;;;;;;;;;;;;;;;;5075864;28;19918;-78
2023/01/26 09:36:11;;;;;;;;;;;;;;;;;;5076188;28;19912;-79
2023/01/26 09:38:37;;;;;;;;;;;;;;;;;;5075506;28;19916;-76
2023/01/26 09:41:03;;;;;;;;;;;;;;;;;;5073222;28;19909;-76
2023/01/26 09:43:29;;;;;;;;;;;;;;;;;;5075843;28;20430;-76
2023/01/26 09:45:55;;;;;;;;;;;;;;;;;;5074306;28;20368;-77
2023/01/26 09:48:21;;;;;;;;;;;;;;;;;;5073059;28;19919;-78
2023/01/26 09:50:47;;;;;;;;;;;;;;;;;;5073841;28;20266;-77
2023/01/26 09:53:13;;;;;;;;;;;;;;;;;;5074932;28;19915;-77
2023/01/26 09:55:39;;;;;;;;;;;;;;;;;;5073042;28;19908;-78
2023/01/26 09:58:05;;;;;;;;;;;;;;;;;;5074364;28;20033;-75
2023/01/26 10:00:30;;;;;;;;;;;;;;;;;;5075259;28;19917;-78
2023/01/26 10:02:56;;;;;;;;;;;;;;;;;;5076590;28;19982;-76
2023/01/26 10:05:22;;;;;;;;;;;;;;;;;;5071073;28;19936;-78
2023/01/26 10:07:48;;;;;;;;;;;;;;;;;;5073795;28;19908;-76
2023/01/26 10:10:14;;;;;;;;;;;;;;;;;;5075126;28;19944;-76
2023/01/26 10:12:40;;;;;;;;;;;;;;;;;;5073470;28;19912;-76
2023/01/26 10:15:07;;;;;;;;;;;;;;;;;;5071915;28;20280;-77
2023/01/26 10:17:33;;;;;;;;;;;;;;;;;;5071356;28;20393;-76
2023/01/26 10:19:59;;;;;;;;;;;;;;;;;;5071959;28;19913;-77
2023/01/26 10:22:25;;;;;;;;;;;;;;;;;;5074061;28;20080;-76
2023/01/26 10:24:51;;;;;;;;;;;;;;;;;;5071186;28;19912;-76
2023/01/26 10:27:17;;;;;;;;;;;;;;;;;;5073781;28;19966;-77
2023/01/26 10:29:43;;;;;;;;;;;;;;;;;;5073205;28;20384;-78
2023/01/26 10:32:09;;;;;;;;;;;;;;;;;;5073440;28;19955;-76
2023/01/26 10:34:35;;;;;;;;;;;;;;;;;;5072738;28;19909;-76
2023/01/26 10:37:01;;;;;;;;;;;;;;;;;;5071771;28;19912;-76
2023/01/26 10:39:27;;;;;;;;;;;;;;;;;;5071193;28;20396;-76
2023/01/26 10:41:53;;;;;;;;;;;;;;;;;;5072910;28;20303;-76
2023/01/26 10:44:19;;;;;;;;;;;;;;;;;;5071458;28;19909;-76
2023/01/26 10:46:45;;;;;;;;;;;;;;;;;;5070466;28;19912;-76
2023/01/26 10:49:11;;;;;;;;;;;;;;;;;;5073118;28;19916;-77
2023/01/26 10:51:36;;;;;;;;;;;;;;;;;;5071375;28;19913;-76
2023/01/26 10:54:02;;;;;;;;;;;;;;;;;;5071442;28;20061;-76
2023/01/26 10:56:28;;;;;;;;;;;;;;;;;;5069283;28;19908;-76
2023/01/26 10:58:54;;;;;;;;;;;;;;;;;;5072204;28;19920;-76
2023/01/26 11:01:26;;;;;;;;;;;;;;;;;;5071403;28;20365;-78
2023/01/26 11:03:51;;;;;;;;;;;;;;;;;;5071169;28;19912;-76
2023/01/26 11:06:17;;;;;;;;;;;;;;;;;;5072053;28;19912;-75
2023/01/26 11:08:43;;;;;;;;;;;;;;;;;;5071971;28;19939;-76
2023/01/26 11:11:10;;;;;;;;;;;;;;;;;;5072240;28;19908;-76
2023/01/26 11:13:36;;;;;;;;;;;;;;;;;;5072739;28;19915;-76
2023/01/26 11:16:02;;;;;;;;;;;;;;;;;;5072868;28;19951;-77
2023/01/26 11:18:28;;;;;;;;;;;;;;;;;;5070728;28;19908;-76
2023/01/26 11:20:54;;;;;;;;;;;;;;;;;;5072390;28;20387;-76
2023/01/26 11:23:20;;;;;;;;;;;;;;;;;;5072567;28;19939;-76
2023/01/26 11:25:45;;;;;;;;;;;;;;;;;;5071810;28;19981;-76
2023/01/26 11:28:11;;;;;;;;;;;;;;;;;;5072252;28;19912;-78
2023/01/26 11:30:37;;;;;;;;;;;;;;;;;;5071989;28;19931;-76
2023/01/26 11:33:03;;;;;;;;;;;;;;;;;;5073218;28;20422;-77
2023/01/26 11:35:29;;;;;;;;;;;;;;;;;;5075559;28;19952;-76
2023/01/26 11:37:55;;;;;;;;;;;;;;;;;;5074255;28;19913;-76
2023/01/26 11:40:23;;;;;;;;;;;;;;;;;;5075185;28;19935;-77
2023/01/26 11:42:48;;;;;;;;;;;;;;;;;;5075451;28;19908;-76
2023/01/26 11:45:15;;;;;;;;;;;;;;;;;;5076072;28;20297;-77
2023/01/26 11:47:40;;;;;;;;;;;;;;;;;;5074286;28;20426;-76
2023/01/26 11:50:06;;;;;;;;;;;;;;;;;;5075739;28;19908;-76
2023/01/26 11:52:32;;;;;;;;;;;;;;;;;;5073681;28;20003;-76
2023/01/26 11:54:58;;;;;;;;;;;;;;;;;;5075307;28;19916;-76
2023/01/26 11:57:26;;;;;;;;;;;;;;;;;;5075623;28;19909;-76
2023/01/26 11:59:52;;;;;;;;;;;;;;;;;;5075422;28;20453;-77
2023/01/26 12:02:18;;;;;;;;;;;;;;;;;;5075427;28;19908;-79
2023/01/26 12:04:44;;;;;;;;;;;;;;;;;;5073374;28;19916;-76
2023/01/26 12:07:10;;;;;;;;;;;;;;;;;;5074129;28;19909;-76
2023/01/26 12:09:37;;;;;;;;;;;;;;;;;;5073573;28;19912;-76
2023/01/26 12:12:06;;;;;;;;;;;;;;;;;;5074056;28;19908;-76
2023/01/26 12:14:32;;;;;;;;;;;;;;;;;;5075013;28;19912;-77
2023/01/26 12:16:58;;;;;;;;;;;;;;;;;;5075360;28;19958;-77
2023/01/26 12:19:25;;;;;;;;;;;;;;;;;;5072971;28;19908;-77
2023/01/26 12:21:51;;;;;;;;;;;;;;;;;;5075196;28;19915;-76
2023/01/26 12:24:19;;;;;;;;;;;;;;;;;;5074899;28;20280;-77
2023/01/26 12:26:45;;;;;;;;;;;;;;;;;;5074503;28;19924;-76
2023/01/26 12:29:11;;;;;;;;;;;;;;;;;;5074813;28;19915;-76
2023/01/26 12:31:37;;;;;;;;;;;;;;;;;;5075133;28;19909;-76
2023/01/26 12:34:03;;;;;;;;;;;;;;;;;;5072553;28;19916;-76
2023/01/26 12:36:29;;;;;;;;;;;;;;;;;;5073325;28;20471;-76
2023/01/26 12:38:55;;;;;;;;;;;;;;;;;;5072678;28;19909;-75
2023/01/26 12:41:21;;;;;;;;;;;;;;;;;;5072950;28;19912;-76
2023/01/26 12:43:47;;;;;;;;;;;;;;;;;;5073312;28;19986;-76
2023/01/26 12:46:13;;;;;;;;;;;;;;;;;;5073397;28;19963;-76
2023/01/26 12:48:39;;;;;;;;;;;;;;;;;;5074165;28;19915;-76
2023/01/26 12:51:05;;;;;;;;;;;;;;;;;;5074903;28;19908;-76
2023/01/26 12:53:31;;;;;;;;;;;;;;;;;;5075329;28;20399;-76
2023/01/26 12:55:57;;;;;;;;;;;;;;;;;;5074206;28;20369;-76
2023/01/26 12:58:22;;;;;;;;;;;;;;;;;;5072322;28;19909;-76
2023/01/26 13:00:48;;;;;;;;;;;;;;;;;;5073283;28;19912;-76
2023/01/26 13:03:14;;;;;;;;;;;;;;;;;;5074429;28;20301;-75
2023/01/26 13:05:40;;;;;;;;;;;;;;;;;;5074072;28;19917;-76
2023/01/26 13:08:06;;;;;;;;;;;;;;;;;;5073779;28;19909;-76
2023/01/26 13:10:32;;;;;;;;;;;;;;;;;;5074363;28;19920;-76
2023/01/26 13:12:58;;;;;;;;;;;;;;;;;;5073510;28;19931;-77
2023/01/26 13:15:24;;;;;;;;;;;;;;;;;;5072188;28;19909;-76
2023/01/26 13:17:50;;;;;;;;;;;;;;;;;;5073549;28;19913;-76
2023/01/26 13:20:15;;;;;;;;;;;;;;;;;;5074019;28;20420;-76
2023/01/26 13:22:41;;;;;;;;;;;;;;;;;;5074112;28;20364;-75
2023/01/26 13:25:07;;;;;;;;;;;;;;;;;;5073617;28;19920;-75
2023/01/26 13:27:33;;;;;;;;;;;;;;;;;;5073549;28;19963;-76
2023/01/26 13:29:59;;;;;;;;;;;;;;;;;;5072705;28;19940;-76
2023/01/26 13:32:25;;;;;;;;;;;;;;;;;;5075450;28;19908;-77
2023/01/26 13:34:56;;;;;;;;;;;;;;;;;;5077036;28;20312;-77
2023/01/26 13:37:22;;;;;;;;;;;;;;;;;;5073272;28;19912;-76
2023/01/26 13:39:48;;;;;;;;;;;;;;;;;;5074037;28;20353;-76
2023/01/26 13:42:13;;;;;;;;;;;;;;;;;;5072604;28;19958;-75
2023/01/26 13:44:39;;;;;;;;;;;;;;;;;;5072266;28;19904;-75
2023/01/26 13:47:05;;;;;;;;;;;;;;;;;;5073622;28;19908;-76
2023/01/26 13:49:31;;;;;;;;;;;;;;;;;;5072968;28;20368;-76
2023/01/26 13:51:57;;;;;;;;;;;;;;;;;;5072794;28;19916;-75
2023/01/26 13:54:23;;;;;;;;;;;;;;;;;;5072180;28;19909;-76
2023/01/26 13:56:49;;;;;;;;;;;;;;;;;;5072722;28;19952;-76
2023/01/26 13:59:15;;;;;;;;;;;;;;;;;;5072758;28;19920;-76
2023/01/26 14:01:41;;;;;;;;;;;;;;;;;;5072379;28;20435;-76
2023/01/26 14:04:07;;;;;;;;;;;;;;;;;;5072133;28;20330;-76
2023/01/26 14:06:33;;;;;;;;;;;;;;;;;;5072941;28;19920;-76
2023/01/26 14:08:59;;;;;;;;;;;;;;;;;;5073016;28;19908;-76
2023/01/26 14:11:25;;;;;;;;;;;;;;;;;;5071664;28;19908;-76
2023/01/26 14:13:51;;;;;;;;;;;;;;;;;;5072890;28;20327;-75
2023/01/26 14:16:17;;;;;;;;;;;;;;;;;;5071784;28;19998;-76
2023/01/26 14:18:42;;;;;;;;;;;;;;;;;;5072214;28;19977;-76
2023/01/26 14:21:08;;;;;;;;;;;;;;;;;;5073168;28;19908;-77
2023/01/26 14:23:34;;;;;;;;;;;;;;;;;;5080079;28;19961;-78
2023/01/26 14:26:00;;;;;;;;;;;;;;;;;;5077553;28;20365;-78
2023/01/26 14:28:26;;;;;;;;;;;;;;;;;;5075716;28;20280;-76
2023/01/26 14:30:52;;;;;;;;;;;;;;;;;;5073169;28;19966;-76
2023/01/26 14:33:18;;;;;;;;;;;;;;;;;;5073033;28;19908;-75
2023/01/26 14:35:44;;;;;;;;;;;;;;;;;;5072410;28;20417;-76
2023/01/26 14:38:10;;;;;;;;;;;;;;;;;;5071130;28;19909;-75
2023/01/26 14:40:35;;;;;;;;;;;;;;;;;;5072599;28;19931;-75
2023/01/26 14:43:01;;;;;;;;;;;;;;;;;;5071262;28;19916;-76
2023/01/26 14:45:28;;;;;;;;;;;;;;;;;;5072348;28;19920;-76
2023/01/26 14:47:54;;;;;;;;;;;;;;;;;;5072735;28;19909;-77
2023/01/26 14:50:22;;;;;;;;;;;;;;;;;;5073051;28;19973;-76
2023/01/26 14:52:48;;;;;;;;;;;;;;;;;;5070872;28;19948;-74
2023/01/26 14:55:13;;;;;;;;;;;;;;;;;;5072733;28;19920;-77
2023/01/26 14:57:39;;;;;;;;;;;;;;;;;;5071118;28;20376;-76
2023/01/26 15:00:08;;;;;;;;;;;;;;;;;;5072450;28;19916;-76
2023/01/26 15:02:35;;;;;;;;;;;;;;;;;;5071415;28;20330;-75
2023/01/26 15:05:01;;;;;;;;;;;;;;;;;;5070760;28;20380;-76
2023/01/26 15:07:26;;;;;;;;;;;;;;;;;;5072041;28;19908;-76
2023/01/26 15:09:52;;;;;;;;;;;;;;;;;;5075449;28;19908;-75
2023/01/26 15:12:18;;;;;;;;;;;;;;;;;;5076701;28;20372;-76
2023/01/26 15:14:44;;;;;;;;;;;;;;;;;;5072952;28;19916;-76
2023/01/26 15:17:10;;;;;;;;;;;;;;;;;;5076487;28;19962;-76
2023/01/26 15:19:36;;;;;;;;;;;;;;;;;;5076196;28;19923;-75
2023/01/26 15:22:02;;;;;;;;;;;;;;;;;;5076484;28;19912;-76
2023/01/26 15:24:28;;;;;;;;;;;;;;;;;;5076649;28;19909;-76
2023/01/26 15:26:54;;;;;;;;;;;;;;;;;;5074798;28;20273;-76
2023/01/26 15:29:19;;;;;;;;;;;;;;;;;;5075719;28;20384;-76
2023/01/26 15:31:45;;;;;;;;;;;;;;;;;;5074839;28;20285;-76
2023/01/26 15:34:11;;;;;;;;;;;;;;;;;;5075245;28;19912;-76
2023/01/26 15:36:37;;;;;;;;;;;;;;;;;;5076631;28;19962;-75
2023/01/26 15:39:03;;;;;;;;;;;;;;;;;;5075478;28;19909;-75
2023/01/26 15:41:29;;;;;;;;;;;;;;;;;;5076909;28;19950;-76
2023/01/26 15:43:55;;;;;;;;;;;;;;;;;;5074876;28;19909;-77
2023/01/26 15:46:21;;;;;;;;;;;;;;;;;;5072135;28;20281;-77
2023/01/26 15:48:47;;;;;;;;;;;;;;;;;;5077682;28;19912;-76
2023/01/26 15:51:13;;;;;;;;;;;;;;;;;;5076752;28;20330;-76
2023/01/26 15:53:38;;;;;;;;;;;;;;;;;;5076524;28;19909;-75
2023/01/26 15:56:04;;;;;;;;;;;;;;;;;;5075607;28;19947;-76
2023/01/26 15:58:33;;;;;;;;;;;;;;;;;;5075288;28;19912;-75
2023/01/26 16:00:59;;;;;;;;;;;;;;;;;;5074234;28;20416;-75
2023/01/26 16:03:25;;;;;;;;;;;;;;;;;;5076001;28;19909;-76
2023/01/26 16:05:51;;;;;;;;;;;;;;;;;;5075538;28;19913;-76
2023/01/26 16:08:17;;;;;;;;;;;;;;;;;;5073499;28;19930;-76
2023/01/26 16:10:43;;;;;;;;;;;;;;;;;;5073604;28;20001;-76
2023/01/26 16:13:12;;;;;;;;;;;;;;;;;;5075473;28;19916;-76
2023/01/26 16:15:38;;;;;;;;;;;;;;;;;;5075237;28;20361;-76
2023/01/26 16:18:04;;;;;;;;;;;;;;;;;;5076027;28;19950;-79
2023/01/26 16:20:30;;;;;;;;;;;;;;;;;;5081461;28;19909;-80
2023/01/26 16:22:55;;;;;;;;;;;;;;;;;;5080631;28;19954;-78
2023/01/26 16:25:22;;;;;;;;;;;;;;;;;;5080899;28;19944;-78
2023/01/26 16:27:48;;;;;;;;;;;;;;;;;;5080263;28;20007;-77
2023/01/26 16:30:13;;;;;;;;;;;;;;;;;;5078832;28;19955;-76
2023/01/26 16:32:41;;;;;;;;;;;;;;;;;;5075009;28;19909;-76
2023/01/26 16:35:07;;;;;;;;;;;;;;;;;;5074688;28;20410;-75
2023/01/26 16:37:33;;;;;;;;;;;;;;;;;;5074182;28;19908;-76
2023/01/26 16:39:58;;;;;;;;;;;;;;;;;;5074682;28;19913;-77
2023/01/26 16:42:24;;;;;;;;;;;;;;;;;;5074437;28;20369;-76
2023/01/26 16:44:50;;;;;;;;;;;;;;;;;;5073687;28;19952;-76
2023/01/26 16:47:16;;;;;;;;;;;;;;;;;;5074121;28;19915;-75
2023/01/26 16:49:42;;;;;;;;;;;;;;;;;;5073901;28;19912;-76
2023/01/26 16:52:08;;;;;;;;;;;;;;;;;;5074973;28;19931;-76
2023/01/26 16:54:34;;;;;;;;;;;;;;;;;;5074521;28;20384;-77
2023/01/26 16:57:00;;;;;;;;;;;;;;;;;;5074764;28;20008;-76
2023/01/26 16:59:26;;;;;;;;;;;;;;;;;;5073451;28;19916;-77
2023/01/26 17:01:52;;;;;;;;;;;;;;;;;;5073493;28;19963;-76
2023/01/26 17:04:18;;;;;;;;;;;;;;;;;;5074819;28;19908;-76
2023/01/26 17:06:44;;;;;;;;;;;;;;;;;;5073192;28;20057;-75
2023/01/26 17:09:10;;;;;;;;;;;;;;;;;;5073157;28;19916;-79
2023/01/26 17:11:36;;;;;;;;;;;;;;;;;;5088666;28;19909;-76
2023/01/26 17:14:02;;;;;;;;;;;;;;;;;;5095661;28;19957;-77
2023/01/26 17:16:28;;;;;;;;;;;;;;;;;;5095122;28;19916;-77
2023/01/26 17:18:54;;;;;;;;;;;;;;;;;;5094709;28;19908;-78
2023/01/26 17:21:20;;;;;;;;;;;;;;;;;;5096175;28;19914;-78